createdAt,value
2023-05-13T00:00:51.648Z,96.33
2023-05-13T00:05:53.084Z,96.86
2023-05-13T00:10:54.506Z,97.03
2023-05-13T00:15:55.898Z,97.79
2023-05-13T00:20:57.288Z,97.24
2023-05-13T00:25:59.329Z,97.55
2023-05-13T00:31:00.664Z,97.08
2023-05-13T00:36:02.234Z,96.75
2023-05-13T00:41:03.958Z,97.00
2023-05-13T00:46:06.094Z,96.12
2023-05-13T00:51:07.767Z,96.90
2023-05-13T00:56:09.161Z,97.07
2023-05-13T01:01:19.735Z,96.66
2023-05-13T01:06:32.649Z,95.99
2023-05-13T01:11:39.974Z,94.99
2023-05-13T01:16:53.309Z,96.08
2023-05-13T01:21:55.570Z,95.27
2023-05-13T01:26:58.101Z,95.66
2023-05-13T01:32:00.633Z,95.65
2023-05-13T01:37:03.224Z,96.11
2023-05-13T01:42:04.860Z,96.05
2023-05-13T01:47:06.503Z,94.43
2023-05-13T01:52:07.976Z,94.53
2023-05-13T01:57:09.468Z,94.84
2023-05-13T02:02:10.991Z,96.71
2023-05-13T02:07:12.398Z,97.44
2023-05-13T02:12:13.792Z,98.30
2023-05-13T02:17:15.226Z,98.17
2023-05-13T02:22:17.559Z,96.78
2023-05-13T02:27:20.634Z,96.03
2023-05-13T02:32:22.307Z,96.76
2023-05-13T02:37:24.645Z,97.67
2023-05-13T02:42:34.107Z,97.99
2023-05-13T02:47:36.170Z,97.58
2023-05-13T02:52:40.047Z,96.22
2023-05-13T02:57:42.743Z,97.17
2023-05-13T03:02:44.263Z,94.76
2023-05-13T03:07:45.993Z,96.81
2023-05-13T03:12:47.396Z,96.19
2023-05-13T03:17:48.827Z,94.81
2023-05-13T03:22:50.413Z,96.01
2023-05-13T03:27:51.868Z,96.17
2023-05-13T03:32:56.404Z,94.02
2023-05-13T03:37:57.970Z,95.60
2023-05-13T03:43:00.282Z,95.49
2023-05-13T03:48:03.630Z,94.23
2023-05-13T03:53:05.286Z,95.77
2023-05-13T03:58:12.747Z,94.26
2023-05-13T04:03:16.089Z,93.11
2023-05-13T04:08:17.785Z,94.01
2023-05-13T04:13:19.230Z,92.76
2023-05-13T04:18:21.107Z,93.63
2023-05-13T04:23:22.538Z,93.13
2023-05-13T04:28:24.019Z,93.58
2023-05-13T04:33:27.202Z,92.77
2023-05-13T04:38:28.594Z,92.32
2023-05-13T04:43:29.965Z,92.58
2023-05-13T04:48:33.219Z,92.20
2023-05-13T04:53:35.305Z,92.91
2023-05-13T04:58:39.640Z,92.20
2023-05-13T05:03:42.587Z,91.78
2023-05-13T05:08:44.444Z,91.43
2023-05-13T05:13:45.845Z,90.81
2023-05-13T05:18:51.043Z,91.29
2023-05-13T05:23:52.668Z,91.24
2023-05-13T05:28:54.636Z,90.71
2023-05-13T05:33:56.368Z,90.98
2023-05-13T05:38:57.814Z,89.36
2023-05-13T05:44:05.768Z,90.13
2023-05-13T05:49:08.226Z,89.09
2023-05-13T05:54:10.850Z,88.82
2023-05-13T05:59:13.197Z,89.15
2023-05-13T06:04:14.859Z,90.29
2023-05-13T06:09:16.903Z,87.75
2023-05-13T06:14:18.340Z,88.70
2023-05-13T06:19:19.703Z,87.58
2023-05-13T06:24:21.123Z,86.89
2023-05-13T06:29:22.506Z,86.63
2023-05-13T06:34:23.853Z,86.07
2023-05-13T06:39:25.352Z,85.29
2023-05-13T06:44:26.726Z,84.91
2023-05-13T06:49:29.625Z,84.23
2023-05-13T06:54:32.029Z,84.68
2023-05-13T06:59:33.490Z,85.01
2023-05-13T07:04:35.019Z,84.75
2023-05-13T07:09:36.336Z,85.63
2023-05-13T07:14:37.845Z,85.36
2023-05-13T07:19:39.264Z,84.20
2023-05-13T07:24:41.727Z,83.96
2023-05-13T07:29:43.093Z,83.02
2023-05-13T07:34:44.465Z,83.59
2023-05-13T07:39:45.818Z,83.11
2023-05-13T07:44:47.224Z,83.91
2023-05-13T07:49:49.185Z,82.21
2023-05-13T07:54:50.611Z,80.93
2023-05-13T07:59:53.539Z,78.56
2023-05-13T08:04:55.006Z,76.84
2023-05-13T08:09:56.514Z,73.44
2023-05-13T08:14:57.968Z,71.66
2023-05-13T08:20:00.570Z,73.37
2023-05-13T08:25:03.266Z,68.82
2023-05-13T08:30:05.352Z,65.25
2023-05-13T08:35:06.955Z,64.57
2023-05-13T08:40:09.960Z,67.19
2023-05-13T08:45:12.182Z,67.71
2023-05-13T08:50:14.033Z,65.18
2023-05-13T08:55:15.555Z,63.61
2023-05-13T09:00:18.485Z,64.17
2023-05-13T09:05:22.124Z,63.24
2023-05-13T09:10:23.855Z,61.94
2023-05-13T09:15:26.520Z,59.68
2023-05-13T09:20:28.640Z,55.33
2023-05-13T09:25:30.570Z,56.16
2023-05-13T09:30:36.169Z,57.31
2023-05-13T09:35:38.494Z,59.85
2023-05-13T09:40:40.201Z,58.41
2023-05-13T09:45:41.935Z,52.44
2023-05-13T09:50:50.497Z,48.00
2023-05-13T09:55:53.122Z,48.96
2023-05-13T10:00:54.811Z,47.85
2023-05-13T10:05:56.740Z,45.01
2023-05-13T10:10:58.773Z,47.96
2023-05-13T10:16:00.357Z,50.17
2023-05-13T10:21:01.950Z,48.60
2023-05-13T10:26:03.782Z,46.17
2023-05-13T10:31:05.213Z,45.41
2023-05-13T10:36:13.036Z,46.01
2023-05-13T10:41:33.414Z,46.74
2023-05-13T10:46:35.361Z,48.53
2023-05-13T10:51:36.758Z,47.85
2023-05-13T10:56:38.128Z,47.04
2023-05-13T11:01:47.086Z,46.42
2023-05-13T11:06:49.691Z,44.89
2023-05-13T11:11:54.340Z,46.38
2023-05-13T11:17:04.624Z,43.48
2023-05-13T11:22:05.978Z,43.33
2023-05-13T11:27:17.384Z,42.72
2023-05-13T11:32:37.878Z,40.81
2023-05-13T11:37:43.192Z,42.50
2023-05-13T11:42:45.202Z,38.33
2023-05-13T11:47:46.779Z,41.07
2023-05-13T11:52:52.696Z,40.75
2023-05-13T11:57:54.188Z,41.34
2023-05-13T12:02:55.971Z,40.38
2023-05-13T12:07:58.035Z,37.59
2023-05-13T12:12:59.564Z,38.71
2023-05-13T12:18:01.104Z,38.45
2023-05-13T12:23:02.799Z,37.87
2023-05-13T12:28:10.179Z,36.19
2023-05-13T12:33:18.717Z,37.78
2023-05-13T12:38:21.659Z,38.53
2023-05-13T12:43:23.095Z,37.21
2023-05-13T12:48:25.433Z,36.83
2023-05-13T12:53:27.250Z,37.31
2023-05-13T12:58:28.673Z,38.83
2023-05-13T13:03:30.223Z,37.89
2023-05-13T13:08:31.755Z,37.93
2023-05-13T13:13:33.471Z,39.78
2023-05-13T13:18:35.326Z,43.53
2023-05-13T13:23:36.702Z,45.30
2023-05-13T13:28:38.030Z,44.53
2023-05-13T13:33:39.388Z,46.78
2023-05-13T13:38:40.819Z,47.15
2023-05-13T13:43:42.156Z,45.79
2023-05-13T13:48:43.572Z,44.41
2023-05-13T13:53:44.927Z,45.54
2023-05-13T13:58:46.275Z,44.95
2023-05-13T14:03:49.904Z,47.40
2023-05-13T14:08:51.813Z,55.57
2023-05-13T14:13:53.133Z,65.65
2023-05-13T14:18:54.550Z,64.24
2023-05-13T14:23:55.974Z,62.25
2023-05-13T14:28:57.454Z,56.53
2023-05-13T14:33:58.822Z,57.38
2023-05-13T14:39:00.233Z,52.40
2023-05-13T14:44:01.747Z,59.43
2023-05-13T14:49:03.161Z,62.10
2023-05-13T14:54:04.677Z,67.86
2023-05-13T14:59:06.031Z,71.77
2023-05-13T15:04:07.385Z,69.16
2023-05-13T15:09:08.804Z,69.69
2023-05-13T15:14:10.221Z,63.57
2023-05-13T15:19:11.620Z,73.59
2023-05-13T15:24:13.014Z,58.21
2023-05-13T15:29:14.359Z,55.36
2023-05-13T15:34:15.838Z,52.57
2023-05-13T15:39:17.193Z,60.53
2023-05-13T15:44:18.978Z,55.94
2023-05-13T15:49:20.332Z,60.35
2023-05-13T15:54:21.696Z,55.41
2023-05-13T15:59:23.064Z,54.40
2023-05-13T16:04:24.433Z,53.49
2023-05-13T16:09:25.953Z,54.16
2023-05-13T16:14:27.476Z,62.87
2023-05-13T16:19:28.844Z,63.77
2023-05-13T16:24:30.208Z,65.96
2023-05-13T16:29:31.561Z,66.12
2023-05-13T16:34:32.898Z,66.00
2023-05-13T16:39:34.299Z,67.27
2023-05-13T16:44:35.728Z,69.57
2023-05-13T16:49:37.117Z,73.38
2023-05-13T16:54:38.578Z,71.94
2023-05-13T16:59:39.970Z,72.16
2023-05-13T17:04:41.344Z,71.45
2023-05-13T17:09:42.709Z,71.15
2023-05-13T17:14:44.115Z,72.98
2023-05-13T17:19:45.592Z,69.92
2023-05-13T17:24:46.900Z,73.13
2023-05-13T17:29:48.318Z,73.82
2023-05-13T17:34:49.698Z,71.54
2023-05-13T17:39:51.239Z,72.51
2023-05-13T17:44:52.702Z,73.94
2023-05-13T17:49:54.165Z,73.31
2023-05-13T17:54:55.661Z,75.02
2023-05-13T17:59:57.751Z,73.91
2023-05-13T18:04:59.454Z,75.43
2023-05-13T18:10:00.934Z,77.04
2023-05-13T18:15:02.391Z,77.57
2023-05-13T18:20:03.915Z,78.05
2023-05-13T18:25:06.172Z,78.04
2023-05-13T18:30:07.881Z,78.19
2023-05-13T18:35:09.562Z,81.45
2023-05-13T18:40:11.168Z,80.36
2023-05-13T18:45:12.552Z,82.44
2023-05-13T18:50:13.938Z,85.40
2023-05-13T18:55:15.409Z,85.68
2023-05-13T19:00:17.672Z,86.01
2023-05-13T19:05:20.533Z,87.65
2023-05-13T19:10:22.267Z,88.93
2023-05-13T19:15:25.152Z,90.31
2023-05-13T19:20:26.939Z,88.33
2023-05-13T19:25:28.371Z,89.35
2023-05-13T19:30:29.782Z,88.89
2023-05-13T19:35:34.413Z,87.96
2023-05-13T19:40:35.942Z,87.27
2023-05-13T19:45:37.375Z,88.73
2023-05-13T19:50:39.412Z,88.98
2023-05-13T19:55:41.182Z,90.46
2023-05-13T20:00:43.912Z,90.80
2023-05-13T20:05:46.384Z,92.64
2023-05-13T20:10:47.812Z,93.43
2023-05-13T20:15:49.256Z,93.46
2023-05-13T20:20:51.502Z,93.82
2023-05-13T20:26:02.097Z,94.61
2023-05-13T20:31:03.694Z,95.12
2023-05-13T20:36:06.479Z,95.26
2023-05-13T20:41:07.906Z,96.61
2023-05-13T20:46:12.673Z,96.90
2023-05-13T20:51:14.068Z,96.06
2023-05-13T20:56:15.448Z,95.97
2023-05-13T21:01:16.889Z,96.54
2023-05-13T21:06:18.280Z,96.97
2023-05-13T21:11:19.657Z,97.89
2023-05-13T21:16:21.100Z,98.67
2023-05-13T21:21:22.550Z,99.45
2023-05-13T21:26:24.298Z,99.88
2023-05-13T21:31:25.747Z,98.67
2023-05-13T21:36:27.110Z,98.16
2023-05-13T21:41:28.444Z,98.13
2023-05-13T21:46:29.805Z,98.19
2023-05-13T21:51:32.569Z,97.82
2023-05-13T21:56:33.934Z,99.54
2023-05-13T22:01:35.319Z,96.60
2023-05-13T22:06:36.676Z,96.24
2023-05-13T22:11:38.015Z,96.91
2023-05-13T22:16:39.481Z,96.29
2023-05-13T22:21:40.950Z,95.68
2023-05-13T22:26:43.552Z,95.62
2023-05-13T22:31:44.956Z,95.10
2023-05-13T22:36:46.345Z,94.86
2023-05-13T22:41:47.839Z,95.80
2023-05-13T22:46:49.369Z,95.34
2023-05-13T22:51:51.118Z,95.78
2023-05-13T22:56:52.567Z,95.05
2023-05-13T23:01:53.936Z,94.85
2023-05-13T23:06:55.338Z,94.91
2023-05-13T23:11:57.316Z,94.05
2023-05-13T23:16:58.735Z,95.46
2023-05-13T23:22:00.126Z,95.51
2023-05-13T23:27:01.465Z,96.49
2023-05-13T23:32:05.174Z,97.58
2023-05-13T23:37:09.758Z,97.04
2023-05-13T23:42:11.344Z,96.23
2023-05-13T23:47:13.436Z,96.16
2023-05-13T23:52:14.790Z,96.40
2023-05-13T23:57:16.169Z,98.61
